createdAt,value
2022-12-18T00:02:07.731Z,29.33
2022-12-18T00:04:55.404Z,17.08
2022-12-18T00:07:42.928Z,16.92
2022-12-18T00:10:30.826Z,22.05
2022-12-18T00:13:19.998Z,17.88
2022-12-18T00:16:09.436Z,23.83
2022-12-18T00:19:03.170Z,20.85
2022-12-18T00:21:50.370Z,22.15
2022-12-18T00:24:37.774Z,19.50
2022-12-18T00:27:25.076Z,19.42
2022-12-18T00:30:14.516Z,19.60
2022-12-18T00:33:02.176Z,20.48
2022-12-18T00:35:49.702Z,19.73
2022-12-18T00:38:37.232Z,18.30
2022-12-18T00:41:43.047Z,19.13
2022-12-18T00:44:30.465Z,17.52
2022-12-18T00:47:19.214Z,17.13
2022-12-18T00:50:08.101Z,19.63
2022-12-18T00:52:56.039Z,20.42
2022-12-18T00:55:43.873Z,19.73
2022-12-18T00:58:31.932Z,17.50
2022-12-18T01:01:20.566Z,16.50
2022-12-18T01:04:09.731Z,17.45
2022-12-18T01:06:58.720Z,19.27
2022-12-18T01:09:46.534Z,16.20
2022-12-18T01:12:34.048Z,15.75
2022-12-18T01:15:22.672Z,19.15
2022-12-18T01:18:09.958Z,17.73
2022-12-18T01:20:59.104Z,19.25
2022-12-18T01:23:46.841Z,18.30
2022-12-18T01:26:34.644Z,18.73
2022-12-18T01:29:21.840Z,18.25
2022-12-18T01:32:09.802Z,17.05
2022-12-18T01:34:57.060Z,18.80
2022-12-18T01:37:45.857Z,17.35
2022-12-18T01:40:33.385Z,19.17
2022-12-18T01:43:20.911Z,18.63
2022-12-18T01:46:08.570Z,18.77
2022-12-18T01:48:59.308Z,20.52
2022-12-18T01:51:47.903Z,18.00
2022-12-18T01:54:37.000Z,17.58
2022-12-18T01:57:26.109Z,19.73
2022-12-18T02:00:16.434Z,19.30
2022-12-18T02:03:04.007Z,17.65
2022-12-18T02:06:01.922Z,17.73
2022-12-18T02:09:10.790Z,19.20
2022-12-18T02:12:04.478Z,19.25
2022-12-18T02:15:01.031Z,21.48
2022-12-18T02:17:54.558Z,19.42
2022-12-18T02:20:47.913Z,22.73
2022-12-18T02:23:49.164Z,20.58
2022-12-18T02:26:43.207Z,23.63
2022-12-18T02:29:34.959Z,22.02
2022-12-18T02:32:26.796Z,22.27
2022-12-18T02:35:17.624Z,21.40
2022-12-18T02:38:06.177Z,22.67
2022-12-18T02:40:56.932Z,19.90
2022-12-18T02:43:52.928Z,21.88
2022-12-18T02:46:44.724Z,20.98
2022-12-18T02:49:46.820Z,24.30
2022-12-18T02:52:41.385Z,29.75
2022-12-18T02:55:43.984Z,22.42
2022-12-18T02:58:44.950Z,20.77
2022-12-18T03:01:48.959Z,21.97
2022-12-18T03:04:42.027Z,19.88
2022-12-18T03:07:39.321Z,18.90
2022-12-18T03:10:33.142Z,20.17
2022-12-18T03:13:32.799Z,17.10
2022-12-18T03:16:25.930Z,18.45
2022-12-18T03:19:18.560Z,18.67
2022-12-18T03:22:09.343Z,17.13
2022-12-18T03:25:09.337Z,17.05
2022-12-18T03:28:01.763Z,15.93
2022-12-18T03:30:53.132Z,16.08
2022-12-18T03:33:44.481Z,17.83
2022-12-18T03:36:33.799Z,16.85
2022-12-18T03:39:22.825Z,17.58
2022-12-18T03:42:22.382Z,15.48
2022-12-18T03:45:17.730Z,16.20
2022-12-18T03:48:09.625Z,15.55
2022-12-18T03:51:04.667Z,15.85
2022-12-18T03:54:00.791Z,14.38
2022-12-18T03:57:01.928Z,15.30
2022-12-18T03:59:57.888Z,14.02
2022-12-18T04:02:57.907Z,14.82
2022-12-18T04:05:55.025Z,14.80
2022-12-18T04:08:44.018Z,14.25
2022-12-18T04:11:35.736Z,14.50
2022-12-18T04:14:24.700Z,14.55
2022-12-18T04:17:15.890Z,15.38
2022-12-18T04:20:03.326Z,12.90
2022-12-18T04:22:52.520Z,13.80
2022-12-18T04:25:41.355Z,11.93
2022-12-18T04:28:33.920Z,13.30
2022-12-18T04:31:21.530Z,14.27
2022-12-18T04:34:09.334Z,13.65
2022-12-18T04:37:03.045Z,13.77
2022-12-18T04:39:51.563Z,12.85
2022-12-18T04:42:48.068Z,13.98
2022-12-18T04:45:37.095Z,14.18
2022-12-18T04:48:24.551Z,14.20
2022-12-18T04:51:12.153Z,14.02
2022-12-18T04:54:00.185Z,13.18
2022-12-18T04:56:48.034Z,14.25
2022-12-18T04:59:35.502Z,11.02
2022-12-18T05:02:24.572Z,13.07
2022-12-18T05:05:12.302Z,13.35
2022-12-18T05:07:59.854Z,13.55
2022-12-18T05:10:47.918Z,15.07
2022-12-18T05:13:36.360Z,15.30
2022-12-18T05:16:24.121Z,14.55
2022-12-18T05:19:12.934Z,16.40
2022-12-18T05:22:01.133Z,15.52
2022-12-18T05:24:48.704Z,16.25
2022-12-18T05:27:36.158Z,15.43
2022-12-18T05:30:23.552Z,13.95
2022-12-18T05:33:10.926Z,14.25
2022-12-18T05:36:04.146Z,13.60
2022-12-18T05:38:51.806Z,13.18
2022-12-18T05:41:39.186Z,14.73
2022-12-18T05:44:26.765Z,15.00
2022-12-18T05:47:14.456Z,14.20
2022-12-18T05:50:01.750Z,14.90
2022-12-18T05:52:50.495Z,13.85
2022-12-18T05:55:38.723Z,14.35
2022-12-18T05:58:26.334Z,13.27
2022-12-18T06:01:15.895Z,13.82
2022-12-18T06:04:03.682Z,13.48
2022-12-18T06:06:51.855Z,17.17
2022-12-18T06:09:40.713Z,14.30
2022-12-18T06:12:28.349Z,14.82
2022-12-18T06:15:16.276Z,14.80
2022-12-18T06:18:04.731Z,12.88
2022-12-18T06:20:57.837Z,15.63
2022-12-18T06:23:45.714Z,14.23
2022-12-18T06:26:34.897Z,14.75
2022-12-18T06:29:22.312Z,16.23
2022-12-18T06:32:10.101Z,13.70
2022-12-18T06:34:57.790Z,14.10
2022-12-18T06:37:45.243Z,13.82
2022-12-18T06:40:33.417Z,15.07
2022-12-18T06:43:22.693Z,12.93
2022-12-18T06:46:11.765Z,13.43
2022-12-18T06:48:59.182Z,15.52
2022-12-18T06:51:46.818Z,14.05
2022-12-18T06:54:35.086Z,13.38
2022-12-18T06:57:22.768Z,14.48
2022-12-18T07:00:12.731Z,14.18
2022-12-18T07:03:00.477Z,13.88
2022-12-18T07:05:47.823Z,15.07
2022-12-18T07:08:37.537Z,15.93
2022-12-18T07:11:25.417Z,15.18
2022-12-18T07:14:13.053Z,15.63
2022-12-18T07:17:02.009Z,15.52
2022-12-18T07:19:49.377Z,14.48
2022-12-18T07:22:36.862Z,16.98
2022-12-18T07:25:24.509Z,17.15
2022-12-18T07:28:17.303Z,17.25
2022-12-18T07:31:05.722Z,18.80
2022-12-18T07:33:56.241Z,18.08
2022-12-18T07:36:44.281Z,22.35
2022-12-18T07:39:31.844Z,19.13
2022-12-18T07:42:34.651Z,16.80
2022-12-18T07:45:22.186Z,18.90
2022-12-18T07:48:10.106Z,19.52
2022-12-18T07:51:02.168Z,17.70
2022-12-18T07:53:51.995Z,18.17
2022-12-18T07:56:40.296Z,21.83
2022-12-18T07:59:27.782Z,20.48
2022-12-18T08:02:15.828Z,21.42
2022-12-18T08:05:03.674Z,19.33
2022-12-18T08:07:52.610Z,19.38
2022-12-18T08:10:40.650Z,21.13
2022-12-18T08:13:29.318Z,19.60
2022-12-18T08:16:17.173Z,20.23
2022-12-18T08:19:04.932Z,19.67
2022-12-18T08:21:52.291Z,20.55
2022-12-18T08:24:41.113Z,22.77
2022-12-18T08:27:29.886Z,21.85
2022-12-18T08:30:17.835Z,21.58
2022-12-18T08:33:05.755Z,23.00
2022-12-18T08:35:53.200Z,20.63
2022-12-18T08:38:41.056Z,21.80
2022-12-18T08:41:30.841Z,20.48
2022-12-18T08:44:35.751Z,20.40
2022-12-18T08:47:23.012Z,21.33
2022-12-18T08:50:13.011Z,23.75
2022-12-18T08:53:00.568Z,23.65
2022-12-18T08:55:50.398Z,21.80
2022-12-18T08:58:39.536Z,21.73
2022-12-18T09:01:27.444Z,21.88
2022-12-18T09:04:15.445Z,21.17
2022-12-18T09:07:02.849Z,19.23
2022-12-18T09:09:50.325Z,19.05
2022-12-18T09:12:37.688Z,17.35
2022-12-18T09:15:26.575Z,19.17
2022-12-18T09:18:15.471Z,18.60
2022-12-18T09:21:10.447Z,15.75
2022-12-18T09:23:58.421Z,18.10
2022-12-18T09:26:47.203Z,19.50
2022-12-18T09:29:35.311Z,19.58
2022-12-18T09:32:24.328Z,20.23
2022-12-18T09:35:11.925Z,18.77
2022-12-18T09:37:59.394Z,17.77
2022-12-18T09:40:50.699Z,17.02
2022-12-18T09:43:43.515Z,16.42
2022-12-18T09:46:36.303Z,16.92
2022-12-18T09:49:29.843Z,17.35
2022-12-18T09:52:21.724Z,15.93
2022-12-18T09:55:18.480Z,17.13
2022-12-18T09:58:16.499Z,16.02
2022-12-18T10:01:04.321Z,16.98
2022-12-18T10:03:53.542Z,16.48
2022-12-18T10:06:48.385Z,16.58
2022-12-18T10:09:42.841Z,16.15
2022-12-18T10:12:38.103Z,17.77
2022-12-18T10:15:30.571Z,16.13
2022-12-18T10:18:30.775Z,16.13
2022-12-18T10:21:22.945Z,15.75
2022-12-18T10:24:22.344Z,16.02
2022-12-18T10:27:16.646Z,14.80
2022-12-18T10:30:14.224Z,15.75
2022-12-18T10:33:03.682Z,15.90
2022-12-18T10:35:53.610Z,16.17
2022-12-18T10:38:41.695Z,17.20
2022-12-18T10:41:31.981Z,15.80
2022-12-18T10:44:21.695Z,16.52
2022-12-18T10:47:14.780Z,17.52
2022-12-18T10:50:03.259Z,16.45
2022-12-18T10:52:57.367Z,15.63
2022-12-18T10:55:48.428Z,17.30
2022-12-18T10:58:39.142Z,17.13
2022-12-18T11:01:26.720Z,15.90
2022-12-18T11:04:19.840Z,17.73
2022-12-18T11:07:09.543Z,16.58
2022-12-18T11:10:06.005Z,15.50
2022-12-18T11:12:54.133Z,17.50
2022-12-18T11:15:43.825Z,16.85
2022-12-18T11:18:34.127Z,21.88
2022-12-18T11:21:22.120Z,20.55
2022-12-18T11:24:21.403Z,16.65
2022-12-18T11:27:20.266Z,17.35
2022-12-18T11:30:17.842Z,15.75
2022-12-18T11:33:09.396Z,15.68
2022-12-18T11:36:03.774Z,17.02
2022-12-18T11:38:53.924Z,18.42
2022-12-18T11:42:05.941Z,17.55
2022-12-18T11:44:57.245Z,17.75
2022-12-18T11:47:52.147Z,19.00
2022-12-18T11:50:49.059Z,16.90
2022-12-18T11:53:39.143Z,16.83
2022-12-18T11:56:34.823Z,19.92
2022-12-18T11:59:33.113Z,19.73
2022-12-18T12:02:39.031Z,18.23
2022-12-18T12:05:42.893Z,19.90
2022-12-18T12:08:42.229Z,19.83
2022-12-18T12:11:39.068Z,19.58
2022-12-18T12:14:40.843Z,18.52
2022-12-18T12:17:39.427Z,20.75
2022-12-18T12:20:39.141Z,20.88
2022-12-18T12:23:38.966Z,19.50
2022-12-18T12:26:34.443Z,18.55
2022-12-18T12:29:37.178Z,18.30
2022-12-18T12:32:38.812Z,18.75
2022-12-18T12:35:37.605Z,20.17
2022-12-18T12:38:29.362Z,20.65
2022-12-18T12:41:40.050Z,22.92
2022-12-18T12:44:32.650Z,20.88
2022-12-18T12:47:25.082Z,19.30
2022-12-18T12:50:18.514Z,21.27
2022-12-18T12:53:12.557Z,21.17
2022-12-18T12:56:00.680Z,23.67
2022-12-18T12:58:59.568Z,22.30
2022-12-18T13:01:55.337Z,21.27
2022-12-18T13:04:50.858Z,21.73
2022-12-18T13:07:42.100Z,20.75
2022-12-18T13:10:38.841Z,23.90
2022-12-18T13:13:25.387Z,23.45
2022-12-18T13:16:20.036Z,26.85
2022-12-18T13:19:26.373Z,22.10
2022-12-18T13:22:25.067Z,23.10
2022-12-18T13:25:37.339Z,24.00
2022-12-18T13:28:40.484Z,23.15
2022-12-18T13:32:12.910Z,20.77
2022-12-18T13:35:42.794Z,20.42
2022-12-18T13:38:36.260Z,18.90
2022-12-18T13:41:26.831Z,21.50
2022-12-18T13:44:19.594Z,17.20
2022-12-18T13:47:07.815Z,19.73
2022-12-18T13:49:57.027Z,19.58
2022-12-18T13:52:46.153Z,17.63
2022-12-18T13:55:34.665Z,17.65
2022-12-18T13:58:22.039Z,18.83
2022-12-18T14:01:24.183Z,19.40
2022-12-18T14:04:13.745Z,20.48
2022-12-18T14:07:06.487Z,19.80
2022-12-18T14:10:12.034Z,22.05
2022-12-18T14:13:08.987Z,20.52
2022-12-18T14:15:58.652Z,24.98
2022-12-18T14:18:51.124Z,19.10
2022-12-18T14:21:40.097Z,20.67
2022-12-18T14:24:28.972Z,20.42
2022-12-18T14:27:31.814Z,21.60
2022-12-18T14:30:31.803Z,23.65
2022-12-18T14:33:21.791Z,23.60
2022-12-18T14:36:18.809Z,22.67
2022-12-18T14:39:06.131Z,21.30
2022-12-18T14:41:53.838Z,23.73
2022-12-18T14:45:05.075Z,23.92
2022-12-18T14:47:50.355Z,20.42
2022-12-18T14:50:37.909Z,24.77
2022-12-18T14:53:34.974Z,24.00
2022-12-18T14:56:24.435Z,23.15
2022-12-18T14:59:23.795Z,29.02
2022-12-18T15:02:21.566Z,30.20
2022-12-18T15:05:21.150Z,26.65
2022-12-18T15:08:36.446Z,30.23
2022-12-18T15:11:48.308Z,26.35
2022-12-18T15:14:40.729Z,23.33
2022-12-18T15:17:30.037Z,24.52
2022-12-18T15:20:17.589Z,26.50
2022-12-18T15:23:05.269Z,27.95
2022-12-18T15:25:58.568Z,26.08
2022-12-18T15:28:48.498Z,24.67
2022-12-18T15:31:36.979Z,26.33
2022-12-18T15:34:26.426Z,25.40
2022-12-18T15:37:13.988Z,26.80
2022-12-18T15:40:03.231Z,24.98
2022-12-18T15:43:10.614Z,26.48
2022-12-18T15:45:58.376Z,22.40
2022-12-18T15:48:47.568Z,23.70
2022-12-18T15:51:39.053Z,24.38
2022-12-18T15:54:40.267Z,27.95
2022-12-18T15:57:27.912Z,27.10
2022-12-18T16:00:16.434Z,26.30
2022-12-18T16:03:04.505Z,26.85
2022-12-18T16:05:52.465Z,28.70
2022-12-18T16:08:41.749Z,27.55
2022-12-18T16:11:45.279Z,27.02
2022-12-18T16:14:33.770Z,26.58
2022-12-18T16:17:21.331Z,22.75
2022-12-18T16:20:15.915Z,22.25
2022-12-18T16:23:03.398Z,29.35
2022-12-18T16:25:52.770Z,26.42
2022-12-18T16:28:45.195Z,28.27
2022-12-18T16:31:36.045Z,27.77
2022-12-18T16:34:28.643Z,28.25
2022-12-18T16:37:17.888Z,23.02
2022-12-18T16:40:06.794Z,25.52
2022-12-18T16:42:56.027Z,27.15
2022-12-18T16:45:43.480Z,29.55
2022-12-18T16:48:31.378Z,29.67
2022-12-18T16:51:19.157Z,24.15
2022-12-18T16:54:10.911Z,25.48
2022-12-18T16:57:03.240Z,29.58
2022-12-18T16:59:52.580Z,27.58
2022-12-18T17:02:40.993Z,26.15
2022-12-18T17:05:28.649Z,25.88
2022-12-18T17:08:17.325Z,30.52
2022-12-18T17:11:08.700Z,27.08
2022-12-18T17:13:56.634Z,27.65
2022-12-18T17:16:49.179Z,28.60
2022-12-18T17:19:41.807Z,31.13
2022-12-18T17:22:29.590Z,29.77
2022-12-18T17:25:17.335Z,29.80
2022-12-18T17:28:04.871Z,30.38
2022-12-18T17:30:54.508Z,30.77
2022-12-18T17:33:44.300Z,31.70
2022-12-18T17:36:32.500Z,33.20
2022-12-18T17:39:21.883Z,27.65
2022-12-18T17:42:10.658Z,28.13
2022-12-18T17:45:03.624Z,28.58
2022-12-18T17:47:54.226Z,28.50
2022-12-18T17:50:46.211Z,28.38
2022-12-18T17:53:34.753Z,28.10
2022-12-18T17:56:24.877Z,30.38
2022-12-18T17:59:13.264Z,28.95
2022-12-18T18:02:01.020Z,31.88
2022-12-18T18:04:48.812Z,30.85
2022-12-18T18:07:37.692Z,32.75
2022-12-18T18:10:26.065Z,32.47
2022-12-18T18:13:43.365Z,30.55
2022-12-18T18:16:36.793Z,33.28
2022-12-18T18:19:25.540Z,33.97
2022-12-18T18:22:13.245Z,32.47
2022-12-18T18:25:02.388Z,35.40
2022-12-18T18:27:50.025Z,36.58
2022-12-18T18:30:38.740Z,37.28
2022-12-18T18:33:26.426Z,36.53
2022-12-18T18:36:14.326Z,36.28
2022-12-18T18:39:02.221Z,42.55
2022-12-18T18:41:51.183Z,40.45
2022-12-18T18:44:38.881Z,33.63
2022-12-18T18:47:26.335Z,41.53
2022-12-18T18:50:14.192Z,35.97
2022-12-18T18:53:01.612Z,40.13
2022-12-18T18:56:04.017Z,36.80
2022-12-18T18:58:58.717Z,38.08
2022-12-18T19:01:46.886Z,36.25
2022-12-18T19:04:36.619Z,36.92
2022-12-18T19:07:32.835Z,37.38
2022-12-18T19:10:20.556Z,36.53
2022-12-18T19:13:21.999Z,37.53
2022-12-18T19:16:11.399Z,37.47
2022-12-18T19:19:01.876Z,36.85
2022-12-18T19:21:50.549Z,36.42
2022-12-18T19:24:38.226Z,40.90
2022-12-18T19:27:26.113Z,42.47
2022-12-18T19:30:14.234Z,42.17
2022-12-18T19:33:19.846Z,43.35
2022-12-18T19:36:16.569Z,43.15
2022-12-18T19:39:10.890Z,42.20
2022-12-18T19:41:58.468Z,38.95
2022-12-18T19:44:48.537Z,48.13
2022-12-18T19:47:36.179Z,51.35
2022-12-18T19:50:25.406Z,47.63
2022-12-18T19:53:13.427Z,43.80
2022-12-18T19:56:05.533Z,44.30
2022-12-18T19:58:53.043Z,39.58
2022-12-18T20:01:40.768Z,41.63
2022-12-18T20:04:28.848Z,44.63
2022-12-18T20:07:17.603Z,40.63
2022-12-18T20:10:09.136Z,43.70
2022-12-18T20:12:56.963Z,38.83
2022-12-18T20:15:45.801Z,44.72
2022-12-18T20:18:33.557Z,39.97
2022-12-18T20:21:21.151Z,36.70
2022-12-18T20:24:11.538Z,37.60
2022-12-18T20:26:59.281Z,41.30
2022-12-18T20:29:46.767Z,41.70
2022-12-18T20:32:37.260Z,42.30
2022-12-18T20:35:28.160Z,38.95
2022-12-18T20:38:16.734Z,40.33
2022-12-18T20:41:09.853Z,45.95
2022-12-18T20:43:57.521Z,42.90
2022-12-18T20:46:45.294Z,38.90
2022-12-18T20:49:33.195Z,42.13
2022-12-18T20:52:20.748Z,43.17
2022-12-18T20:55:11.263Z,38.25
2022-12-18T20:58:00.094Z,45.83
2022-12-18T21:00:47.789Z,35.90
2022-12-18T21:03:38.311Z,40.17
2022-12-18T21:06:26.533Z,44.47
2022-12-18T21:09:13.774Z,40.40
2022-12-18T21:12:18.666Z,39.83
2022-12-18T21:15:10.611Z,38.67
2022-12-18T21:17:58.011Z,41.67
2022-12-18T21:20:46.071Z,40.78
2022-12-18T21:23:36.385Z,40.50
2022-12-18T21:26:26.184Z,39.38
2022-12-18T21:29:15.404Z,39.15
2022-12-18T21:32:05.672Z,42.13
2022-12-18T21:34:53.157Z,43.20
2022-12-18T21:37:40.818Z,39.72
2022-12-18T21:40:28.305Z,45.13
2022-12-18T21:43:33.420Z,48.08
2022-12-18T21:46:20.851Z,47.30
2022-12-18T21:49:10.822Z,49.00
2022-12-18T21:52:00.252Z,43.80
2022-12-18T21:54:48.477Z,51.25
2022-12-18T21:57:35.927Z,43.75
2022-12-18T22:00:23.603Z,47.00
2022-12-18T22:03:18.313Z,49.40
2022-12-18T22:06:09.836Z,49.78
2022-12-18T22:08:57.699Z,50.08
2022-12-18T22:11:45.500Z,51.63
2022-12-18T22:14:33.258Z,49.83
2022-12-18T22:17:20.972Z,50.10
2022-12-18T22:20:11.113Z,48.20
2022-12-18T22:23:02.604Z,45.72
2022-12-18T22:25:53.907Z,46.80
2022-12-18T22:28:58.644Z,45.33
2022-12-18T22:31:46.209Z,43.97
2022-12-18T22:34:36.474Z,47.60
2022-12-18T22:37:24.233Z,43.42
2022-12-18T22:40:23.861Z,46.88
2022-12-18T22:43:12.476Z,48.75
2022-12-18T22:46:03.554Z,47.13
2022-12-18T22:48:51.795Z,48.88
2022-12-18T22:51:39.373Z,43.90
2022-12-18T22:54:27.107Z,45.05
2022-12-18T22:57:16.041Z,43.05
2022-12-18T23:00:04.310Z,44.65
2022-12-18T23:02:57.629Z,44.53
2022-12-18T23:05:48.444Z,44.55
2022-12-18T23:08:36.622Z,46.42
2022-12-18T23:11:24.842Z,46.55
2022-12-18T23:14:14.231Z,45.63
2022-12-18T23:17:02.162Z,48.90
2022-12-18T23:19:49.788Z,46.85
2022-12-18T23:22:37.390Z,50.03
2022-12-18T23:25:26.160Z,51.10
2022-12-18T23:28:14.348Z,46.53
2022-12-18T23:31:09.333Z,49.25
2022-12-18T23:33:58.971Z,51.28
2022-12-18T23:36:47.441Z,52.58
2022-12-18T23:39:35.984Z,53.05
2022-12-18T23:42:23.458Z,47.50
2022-12-18T23:45:18.097Z,54.22
2022-12-18T23:48:07.486Z,45.15
2022-12-18T23:50:55.165Z,51.75
2022-12-18T23:53:43.369Z,52.00
2022-12-18T23:56:31.728Z,46.78
2022-12-18T23:59:24.032Z,48.28
